Time;durP1;ratioP1;P1;durP2;ratioP2;P2;SDS_P1;SDS_P2;PMS_P1;PMS_P2;Temp;Humidity;BMP_temperature;BMP_pressure;BME280_temperature;BME280_humidity;BME280_pressure;Samples;Min_cycle;Max_cycle;Signal;HPM_P1;HPM_P2
2024/04/15 00:02:17;;;;;;;18.85;16.95;;;19.00;70.60;;;;;;5365272;26;111237;-49
2024/04/15 00:04:43;;;;;;;18.60;16.73;;;18.90;71.10;;;;;;5365501;26;111849;-49
2024/04/15 00:07:08;;;;;;;18.63;16.75;;;18.90;71.20;;;;;;5366806;26;110570;-49
2024/04/15 00:09:34;;;;;;;19.30;16.35;;;18.80;71.10;;;;;;5366530;26;110851;-49
2024/04/15 00:12:00;;;;;;;18.80;16.48;;;18.70;71.20;;;;;;5365491;26;112594;-49
2024/04/15 00:14:25;;;;;;;18.98;17.13;;;18.80;70.90;;;;;;5365556;26;112605;-49
2024/04/15 00:16:51;;;;;;;18.92;17.23;;;18.80;70.80;;;;;;5366661;26;110784;-49
2024/04/15 00:19:17;;;;;;;18.00;16.40;;;18.70;70.90;;;;;;5366779;26;110592;-49
2024/04/15 00:21:42;;;;;;;19.52;17.65;;;18.60;71.20;;;;;;5365297;26;111115;-49
2024/04/15 00:24:08;;;;;;;18.92;16.55;;;18.70;70.70;;;;;;5365496;26;111771;-49
2024/04/15 00:26:33;;;;;;;19.02;16.98;;;18.60;70.60;;;;;;5366264;26;110477;-49
2024/04/15 00:28:59;;;;;;;18.40;16.65;;;18.70;70.30;;;;;;5366760;26;110582;-49
2024/04/15 00:31:25;;;;;;;17.58;15.80;;;18.60;70.30;;;;;;5365103;26;111273;-49
2024/04/15 00:33:50;;;;;;;18.00;16.23;;;18.60;70.10;;;;;;5365439;26;110443;-49
2024/04/15 00:36:16;;;;;;;17.45;15.70;;;18.70;69.50;;;;;;5366533;26;110482;-49
2024/04/15 00:38:41;;;;;;;17.70;15.60;;;18.50;69.90;;;;;;5366157;26;110888;-49
2024/04/15 00:41:07;;;;;;;17.63;15.80;;;18.60;69.90;;;;;;5365389;26;112297;-49
2024/04/15 00:43:33;;;;;;;18.15;16.45;;;18.50;70.20;;;;;;5365021;26;111823;-49
2024/04/15 00:45:58;;;;;;;18.48;16.60;;;18.60;69.80;;;;;;5366271;26;110525;-49
2024/04/15 00:48:24;;;;;;;19.10;17.13;;;18.70;69.30;;;;;;5366190;26;111037;-49
2024/04/15 00:50:51;;;;;;;17.70;16.08;;;18.70;69.20;;;;;;5365815;26;111082;-49
2024/04/15 00:53:22;;;;;;;21.88;16.45;;;18.70;69.30;;;;;;5365117;26;111657;-49
2024/04/15 00:55:51;;;;;;;18.35;16.55;;;18.70;69.30;;;;;;5366158;26;110796;-49
2024/04/15 00:58:18;;;;;;;21.35;16.73;;;18.80;68.60;;;;;;5366355;26;110638;-50
2024/04/15 01:00:44;;;;;;;20.63;16.42;;;18.70;68.90;;;;;;5364947;26;111135;-49
2024/04/15 01:03:10;;;;;;;19.05;17.25;;;18.60;69.60;;;;;;5364961;26;111847;-49
2024/04/15 01:05:36;;;;;;;19.48;17.67;;;18.40;69.90;;;;;;5366159;26;110548;-49
2024/04/15 01:08:02;;;;;;;19.92;17.92;;;18.30;70.00;;;;;;5366007;26;110539;-49
2024/04/15 01:10:28;;;;;;;18.80;17.00;;;18.30;70.60;;;;;;5365063;26;113160;-49
2024/04/15 01:12:54;;;;;;;19.95;17.85;;;18.10;70.80;;;;;;5364736;26;111261;-50
2024/04/15 01:15:19;;;;;;;20.52;18.50;;;18.10;71.20;;;;;;5394132;26;110813;-49
2024/04/15 01:17:45;;;;;;;21.85;19.55;;;18.20;70.60;;;;;;5366177;26;110607;-49
2024/04/15 01:20:11;;;;;;;22.25;19.52;;;18.10;71.30;;;;;;5364691;26;112337;-49
2024/04/15 01:22:43;;;;;;;20.88;18.98;;;18.10;71.30;;;;;;5364845;26;111514;-49
2024/04/15 01:25:08;;;;;;;21.73;19.58;;;18.00;71.60;;;;;;5365983;26;110623;-49
2024/04/15 01:27:34;;;;;;;22.40;20.08;;;18.20;71.30;;;;;;5365895;26;110608;-49
2024/04/15 01:29:59;;;;;;;22.40;20.15;;;18.10;71.80;;;;;;5364608;26;113432;-49
2024/04/15 01:32:25;;;;;;;21.00;18.95;;;18.00;71.90;;;;;;5364975;26;111090;-49
2024/04/15 01:34:51;;;;;;;22.00;19.70;;;18.10;71.80;;;;;;5365636;26;110409;-49
2024/04/15 01:37:16;;;;;;;22.65;20.00;;;18.20;71.60;;;;;;5365959;26;110514;-49
2024/04/15 01:39:42;;;;;;;24.13;20.83;;;18.10;71.60;;;;;;5364750;26;112638;-49
2024/04/15 01:42:08;;;;;;;22.90;20.48;;;18.10;71.90;;;;;;5364443;26;111250;-49
2024/04/15 01:44:33;;;;;;;22.02;19.83;;;17.90;72.20;;;;;;5366006;26;110922;-49
2024/04/15 01:46:59;;;;;;;23.80;20.85;;;17.90;72.40;;;;;;5365578;26;111128;-49
2024/04/15 01:49:25;;;;;;;24.33;21.73;;;17.90;72.40;;;;;;5364668;26;111079;-49
2024/04/15 01:51:50;;;;;;;23.80;21.17;;;17.80;72.70;;;;;;5364459;26;111600;-49
2024/04/15 01:54:16;;;;;;;24.75;22.17;;;17.90;72.50;;;;;;5365628;26;110431;-49
2024/04/15 01:56:41;;;;;;;24.25;21.75;;;17.80;72.50;;;;;;5365761;26;110892;-49
2024/04/15 01:59:07;;;;;;;29.85;23.85;;;17.80;72.70;;;;;;5364278;26;112471;-49
2024/04/15 02:01:35;;;;;;;27.40;24.23;;;17.90;72.20;;;;;;5364484;26;110385;-49
2024/04/15 02:04:01;;;;;;;32.17;26.20;;;17.70;72.70;;;;;;5363710;26;110810;-49
2024/04/15 02:06:26;;;;;;;28.23;25.42;;;17.70;72.60;;;;;;5365533;26;111015;-49
2024/04/15 02:08:52;;;;;;;26.80;24.05;;;17.70;72.70;;;;;;5364542;26;111078;-49
2024/04/15 02:11:17;;;;;;;28.63;25.58;;;17.80;72.20;;;;;;5364083;26;111638;-49
2024/04/15 02:13:43;;;;;;;30.23;25.27;;;17.80;71.80;;;;;;5383030;26;111667;-49
2024/04/15 02:16:09;;;;;;;26.02;23.42;;;17.70;72.00;;;;;;5380333;26;110705;-49
2024/04/15 02:18:35;;;;;;;25.58;23.23;;;17.40;72.90;;;;;;5370917;26;112867;-49
2024/04/15 02:21:00;;;;;;;26.77;23.95;;;17.50;73.00;;;;;;5377732;26;110964;-49
2024/04/15 02:23:26;;;;;;;26.08;23.30;;;17.50;72.90;;;;;;5383399;26;110639;-49
2024/04/15 02:25:52;;;;;;;27.30;24.90;;;17.60;72.80;;;;;;5381674;26;110665;-49
2024/04/15 02:28:17;;;;;;;26.75;23.83;;;17.70;72.50;;;;;;5383983;26;111085;-49
2024/04/15 02:30:43;;;;;;;28.17;24.52;;;17.60;72.80;;;;;;5383927;26;111666;-49
2024/04/15 02:33:09;;;;;;;27.75;24.88;;;17.60;72.90;;;;;;5372993;26;112548;-49
2024/04/15 02:35:34;;;;;;;27.88;25.15;;;17.60;73.00;;;;;;5380353;26;110907;-49
2024/04/15 02:38:00;;;;;;;27.33;24.55;;;17.50;73.30;;;;;;5365440;26;111372;-49
2024/04/15 02:40:26;;;;;;;27.23;24.60;;;17.40;73.40;;;;;;5368949;26;111941;-49
2024/04/15 02:42:52;;;;;;;28.50;25.67;;;17.40;73.60;;;;;;5364876;26;110465;-49
2024/04/15 02:45:18;;;;;;;31.65;25.85;;;17.30;74.00;;;;;;5365099;26;110930;-49
2024/04/15 02:47:43;;;;;;;27.60;24.80;;;17.30;74.10;;;;;;5363653;26;112536;-49
2024/04/15 02:50:09;;;;;;;27.48;24.65;;;17.30;74.20;;;;;;5363694;26;110480;-49
2024/04/15 02:52:34;;;;;;;27.15;24.40;;;17.40;73.90;;;;;;5365209;26;110402;-49
2024/04/15 02:55:00;;;;;;;26.92;24.10;;;17.40;73.60;;;;;;5364626;26;110450;-49
2024/04/15 02:57:26;;;;;;;28.08;24.40;;;17.20;74.10;;;;;;5363623;26;112571;-49
2024/04/15 02:59:51;;;;;;;28.67;25.83;;;17.30;74.20;;;;;;5363599;26;110835;-49
2024/04/15 03:02:17;;;;;;;28.08;25.45;;;17.20;74.40;;;;;;5364714;26;110662;-49
2024/04/15 03:04:43;;;;;;;29.67;26.55;;;17.20;74.40;;;;;;5362648;26;110612;-49
2024/04/15 03:07:08;;;;;;;30.67;27.40;;;17.10;74.50;;;;;;5363399;26;111251;-49
2024/04/15 03:09:34;;;;;;;29.52;26.52;;;17.10;74.40;;;;;;5363466;26;110793;-50
2024/04/15 03:12:00;;;;;;;29.10;26.30;;;17.00;74.90;;;;;;5364275;26;110426;-49
2024/04/15 03:14:25;;;;;;;29.52;26.63;;;17.10;75.00;;;;;;5364426;26;110668;-49
2024/04/15 03:16:51;;;;;;;29.83;27.00;;;17.10;74.70;;;;;;5363125;26;111128;-49
2024/04/15 03:19:17;;;;;;;32.63;29.20;;;17.10;74.90;;;;;;5363275;26;111684;-49
2024/04/15 03:21:42;;;;;;;35.33;29.13;;;17.10;74.80;;;;;;5364328;26;110869;-49
2024/04/15 03:24:08;;;;;;;32.78;29.45;;;17.00;74.90;;;;;;5339305;26;110847;-50
2024/04/15 03:26:34;;;;;;;32.20;28.90;;;16.90;75.70;;;;;;5363007;26;112535;-49
2024/04/15 03:28:59;;;;;;;34.00;30.65;;;16.80;76.00;;;;;;5362867;26;110596;-49
2024/04/15 03:31:25;;;;;;;33.15;29.90;;;16.90;75.90;;;;;;5364059;26;110330;-49
2024/04/15 03:33:51;;;;;;;34.53;31.02;;;16.90;76.00;;;;;;5363851;26;111004;-49
2024/04/15 03:36:17;;;;;;;34.45;31.27;;;16.90;76.10;;;;;;5364512;26;112535;-49
2024/04/15 03:38:42;;;;;;;39.20;33.08;;;17.00;75.90;;;;;;5366094;26;110718;-49
2024/04/15 03:41:08;;;;;;;36.75;33.08;;;16.90;76.10;;;;;;5366645;26;110735;-49
2024/04/15 03:43:34;;;;;;;35.35;31.77;;;16.90;76.10;;;;;;5367123;26;110840;-49
2024/04/15 03:46:00;;;;;;;35.95;32.35;;;16.90;76.20;;;;;;5365783;26;111134;-49
2024/04/15 03:48:25;;;;;;;36.25;32.35;;;16.90;76.30;;;;;;5366063;26;110765;-49
2024/04/15 03:50:51;;;;;;;35.35;31.98;;;17.00;76.30;;;;;;5367291;26;110378;-49
2024/04/15 03:53:17;;;;;;;36.30;32.80;;;16.90;76.40;;;;;;5366820;26;110850;-49
2024/04/15 03:55:54;;;;;;;38.13;34.10;;;16.80;76.70;;;;;;5365551;26;112528;-49
2024/04/15 03:58:20;;;;;;;38.92;34.80;;;16.80;76.90;;;;;;5366005;26;111559;-49
2024/04/15 04:00:49;;;;;;;37.70;33.67;;;16.80;76.80;;;;;;5366878;26;110614;-49
2024/04/15 04:03:17;;;;;;;39.50;35.55;;;16.70;77.00;;;;;;5366616;26;111193;-49
2024/04/15 04:05:43;;;;;;;41.20;35.53;;;16.80;77.10;;;;;;5365645;26;111559;-49
2024/04/15 04:08:09;;;;;;;37.35;33.50;;;16.80;77.10;;;;;;5365475;26;110829;-49
2024/04/15 04:10:34;;;;;;;38.58;34.67;;;16.90;77.10;;;;;;5366776;26;110417;-48
2024/04/15 04:13:00;;;;;;;40.40;36.47;;;16.90;76.90;;;;;;5366472;26;110624;-48
2024/04/15 04:15:26;;;;;;;41.20;37.25;;;16.80;77.30;;;;;;5365522;26;112906;-49
2024/04/15 04:17:51;;;;;;;42.28;36.92;;;16.70;77.60;;;;;;5365620;26;111769;-48
2024/04/15 04:20:17;;;;;;;40.42;36.63;;;16.60;77.90;;;;;;5366418;26;110556;-48
2024/04/15 04:22:42;;;;;;;38.90;35.25;;;16.60;77.80;;;;;;5366427;26;111449;-49
2024/04/15 04:25:08;;;;;;;40.08;36.28;;;16.70;77.60;;;;;;5365286;26;112693;-48
2024/04/15 04:27:34;;;;;;;40.97;36.72;;;16.80;77.30;;;;;;5365587;26;110458;-48
2024/04/15 04:29:59;;;;;;;40.55;36.55;;;16.60;77.60;;;;;;5366620;26;112749;-49
2024/04/15 04:32:25;;;;;;;42.10;37.65;;;16.60;77.80;;;;;;5366538;26;110585;-49
2024/04/15 04:34:51;;;;;;;39.25;35.08;;;16.60;77.70;;;;;;5365548;26;111089;-49
2024/04/15 04:37:16;;;;;;;40.25;35.88;;;16.60;77.90;;;;;;5364806;26;111406;-49
2024/04/15 04:39:42;;;;;;;40.90;36.65;;;16.60;77.80;;;;;;5366411;26;110753;-49
2024/04/15 04:42:07;;;;;;;39.50;35.28;;;16.60;77.60;;;;;;5366255;26;110531;-49
2024/04/15 04:44:33;;;;;;;39.60;35.55;;;16.50;77.80;;;;;;5365012;26;112397;-49
2024/04/15 04:46:59;;;;;;;39.35;35.47;;;16.60;77.60;;;;;;5364833;26;111157;-49
2024/04/15 04:49:24;;;;;;;40.28;36.30;;;16.60;77.60;;;;;;5366168;26;110601;-48
2024/04/15 04:51:51;;;;;;;37.80;34.05;;;16.60;77.60;;;;;;5366790;26;110940;-48
2024/04/15 04:54:17;;;;;;;37.03;33.30;;;16.60;77.70;;;;;;5364789;26;111124;-49
2024/04/15 04:56:43;;;;;;;38.78;34.72;;;16.80;77.20;;;;;;5365338;26;111055;-49
2024/04/15 04:59:08;;;;;;;38.05;33.75;;;16.80;77.10;;;;;;5366154;26;110472;-48
2024/04/15 05:01:34;;;;;;;38.72;34.90;;;16.80;77.30;;;;;;5365956;26;110554;-49
2024/04/15 05:03:59;;;;;;;40.00;35.85;;;16.70;77.50;;;;;;5365135;26;112911;-49
2024/04/15 05:06:25;;;;;;;39.10;35.40;;;16.70;77.40;;;;;;5364729;26;110791;-49
2024/04/15 05:08:51;;;;;;;36.50;32.90;;;16.80;77.40;;;;;;5366198;26;110456;-49
2024/04/15 05:11:16;;;;;;;37.63;33.67;;;16.90;77.00;;;;;;5365747;26;110570;-49
2024/04/15 05:13:42;;;;;;;36.28;32.83;;;16.90;76.80;;;;;;5364940;26;111863;-49
2024/04/15 05:16:09;;;;;;;37.42;32.42;;;17.00;76.70;;;;;;5362985;26;114096;-49
2024/04/15 05:18:36;;;;;;;37.38;33.58;;;17.10;76.30;;;;;;5365757;26;110597;-49
2024/04/15 05:21:02;;;;;;;36.55;32.95;;;17.20;76.00;;;;;;5365808;26;110659;-49
2024/04/15 05:23:29;;;;;;;36.45;32.80;;;17.20;75.90;;;;;;5364717;26;111097;-49
2024/04/15 05:25:58;;;;;;;34.90;31.50;;;17.30;75.90;;;;;;5364860;26;111877;-49
2024/04/15 05:28:24;;;;;;;36.58;32.47;;;17.30;75.90;;;;;;5365585;26;111149;-49
2024/04/15 05:30:55;;;;;;;35.38;31.77;;;17.40;75.30;;;;;;5365938;26;110613;-49
2024/04/15 05:33:21;;;;;;;34.70;31.13;;;17.60;75.30;;;;;;5364396;26;111167;-50
2024/04/15 05:35:48;;;;;;;34.75;31.10;;;17.60;75.10;;;;;;5364700;26;110757;-49
2024/04/15 05:38:14;;;;;;;34.90;31.30;;;17.80;74.50;;;;;;5365740;26;110865;-49
2024/04/15 05:40:40;;;;;;;33.95;30.05;;;17.90;74.50;;;;;;5365509;26;110745;-49
2024/04/15 05:43:10;;;;;;;32.53;29.25;;;18.00;73.90;;;;;;5364682;26;111177;-49
2024/04/15 05:45:36;;;;;;;34.50;30.50;;;18.20;73.30;;;;;;5364744;26;110493;-49
2024/04/15 05:48:03;;;;;;;35.05;29.45;;;18.30;73.00;;;;;;5365283;26;110669;-49
2024/04/15 05:50:32;;;;;;;32.95;29.65;;;18.30;73.20;;;;;;5365947;26;110777;-49
2024/04/15 05:52:58;;;;;;;31.05;27.95;;;18.40;73.20;;;;;;5364333;26;111519;-49
2024/04/15 05:55:24;;;;;;;32.13;28.73;;;18.60;73.00;;;;;;5364478;26;110508;-49
2024/04/15 05:57:49;;;;;;;32.42;28.95;;;18.70;72.30;;;;;;5364571;26;110656;-50
2024/04/15 06:00:17;;;;;;;31.55;27.15;;;18.80;71.90;;;;;;5365408;26;110527;-50
2024/04/15 06:02:42;;;;;;;28.67;25.58;;;19.00;71.20;;;;;;5364214;26;112508;-50
2024/04/15 06:05:08;;;;;;;29.52;25.95;;;19.30;70.20;;;;;;5364671;26;111472;-50
2024/04/15 06:07:34;;;;;;;27.23;24.42;;;19.40;69.60;;;;;;5365618;26;110952;-50
2024/04/15 06:10:00;;;;;;;27.00;24.20;;;19.40;69.00;;;;;;5365396;26;110519;-50
2024/04/15 06:12:28;;;;;;;25.98;23.38;;;19.40;68.90;;;;;;5364328;26;112335;-50
2024/04/15 06:14:57;;;;;;;26.73;23.85;;;19.50;68.80;;;;;;5364173;26;110359;-50
2024/04/15 06:17:24;;;;;;;24.50;21.90;;;19.60;68.60;;;;;;5365492;26;110376;-50
2024/04/15 06:19:50;;;;;;;24.60;22.00;;;19.70;68.40;;;;;;5365482;26;110517;-50
2024/04/15 06:22:19;;;;;;;23.55;20.92;;;19.80;67.90;;;;;;5364308;26;111416;-51
2024/04/15 06:24:45;;;;;;;24.33;21.73;;;19.80;67.70;;;;;;5364277;26;110921;-50
2024/04/15 06:27:11;;;;;;;23.15;20.58;;;19.80;67.00;;;;;;5340649;26;110385;-51
2024/04/15 06:29:38;;;;;;;23.75;21.25;;;19.90;67.30;;;;;;5365316;26;111063;-51
2024/04/15 06:32:04;;;;;;;23.48;21.08;;;20.20;65.80;;;;;;5363789;26;112999;-50
2024/04/15 06:34:30;;;;;;;22.23;20.02;;;20.10;65.50;;;;;;5364390;26;111746;-50
2024/04/15 06:36:57;;;;;;;21.85;19.67;;;20.10;65.00;;;;;;5365083;26;110672;-51
2024/04/15 06:39:23;;;;;;;20.70;18.65;;;20.20;64.90;;;;;;5364505;26;110757;-51
2024/04/15 06:41:49;;;;;;;20.23;17.52;;;20.30;64.80;;;;;;5363774;26;111301;-51
2024/04/15 06:44:16;;;;;;;18.90;16.92;;;20.50;63.80;;;;;;5363847;26;110628;-51
2024/04/15 06:46:41;;;;;;;18.50;16.60;;;20.70;63.50;;;;;;5364857;26;110735;-51
2024/04/15 06:49:07;;;;;;;21.30;17.90;;;20.80;63.20;;;;;;5364554;26;110886;-50
2024/04/15 06:51:35;;;;;;;20.48;17.67;;;20.70;63.40;;;;;;5363632;26;113251;-48
2024/04/15 06:54:01;;;;;;;17.48;15.68;;;20.90;63.00;;;;;;5363339;26;111242;-49
2024/04/15 06:56:27;;;;;;;17.67;15.88;;;21.10;62.70;;;;;;5362627;26;110825;-49
2024/04/15 06:58:52;;;;;;;18.08;16.48;;;21.10;62.40;;;;;;5364474;26;111128;-50
2024/04/15 07:01:19;;;;;;;20.23;16.73;;;21.20;61.90;;;;;;5362598;26;112600;-50
2024/04/15 07:03:44;;;;;;;16.85;14.32;;;21.00;61.80;;;;;;5361281;26;111787;-50
2024/04/15 07:06:10;;;;;;;16.33;14.45;;;21.00;62.50;;;;;;5361934;26;110996;-50
2024/04/15 07:08:36;;;;;;;16.52;13.70;;;21.40;61.50;;;;;;5364076;26;110478;-50
2024/04/15 07:11:01;;;;;;;17.90;13.02;;;21.40;61.50;;;;;;5365164;26;113484;-50
2024/04/15 07:13:29;;;;;;;17.05;14.45;;;21.70;60.70;;;;;;5364962;26;111591;-50
2024/04/15 07:15:55;;;;;;;16.52;14.10;;;21.70;60.20;;;;;;5366880;26;110457;-50
2024/04/15 07:18:20;;;;;;;15.60;12.98;;;21.60;60.80;;;;;;5366892;26;111127;-50
2024/04/15 07:20:46;;;;;;;14.93;12.38;;;21.80;60.70;;;;;;5365882;26;111389;-50
2024/04/15 07:23:12;;;;;;;14.60;12.45;;;21.90;60.30;;;;;;5365498;26;112425;-51
2024/04/15 07:25:37;;;;;;;15.30;12.63;;;21.90;60.00;;;;;;5361585;26;110976;-50
2024/04/15 07:28:03;;;;;;;16.88;11.07;;;22.00;60.30;;;;;;5366959;26;110588;-50
2024/04/15 07:30:29;;;;;;;16.38;9.82;;;22.00;60.80;;;;;;5363198;26;114162;-50
2024/04/15 07:32:55;;;;;;;13.65;9.48;;;22.20;60.60;;;;;;5366167;26;111996;-49
2024/04/15 07:35:21;;;;;;;12.75;10.52;;;22.40;59.50;;;;;;5367446;26;110581;-50
2024/04/15 07:37:47;;;;;;;20.33;9.70;;;22.50;59.30;;;;;;5366792;26;110635;-50
2024/04/15 07:40:13;;;;;;;14.20;9.60;;;22.70;59.00;;;;;;5366428;26;112563;-49
2024/04/15 07:42:41;;;;;;;12.98;9.02;;;22.90;59.00;;;;;;5366210;26;110678;-50
2024/04/15 07:45:07;;;;;;;13.70;9.60;;;23.20;58.30;;;;;;5367815;26;110524;-50
2024/04/15 07:47:33;;;;;;;12.45;9.45;;;23.20;57.70;;;;;;5367218;26;110520;-50
2024/04/15 07:49:59;;;;;;;11.90;9.20;;;23.10;58.00;;;;;;5366483;26;112738;-50
2024/04/15 07:52:24;;;;;;;15.25;9.35;;;23.20;57.80;;;;;;5366788;26;110687;-50
2024/04/15 07:54:51;;;;;;;34.10;10.30;;;23.20;57.40;;;;;;5364973;26;110502;-50
2024/04/15 07:57:17;;;;;;;21.25;10.10;;;23.30;57.50;;;;;;5366603;26;110612;-50
2024/04/15 07:59:43;;;;;;;13.80;9.85;;;23.50;56.60;;;;;;5365316;26;111208;-50
2024/04/15 08:02:09;;;;;;;13.40;9.30;;;23.60;57.20;;;;;;5365400;26;110516;-50
2024/04/15 08:04:36;;;;;;;13.18;9.20;;;23.70;57.20;;;;;;5367487;26;110919;-50
2024/04/15 08:07:01;;;;;;;15.30;9.90;;;23.70;57.50;;;;;;5366870;26;110684;-50
2024/04/15 08:09:27;;;;;;;12.80;9.77;;;23.70;57.70;;;;;;5364129;26;113965;-50
2024/04/15 08:11:53;;;;;;;11.77;8.90;;;23.70;57.40;;;;;;5365717;26;112422;-50
2024/04/15 08:14:20;;;;;;;14.35;9.02;;;23.60;57.80;;;;;;5366735;26;110701;-50
2024/04/15 08:16:46;;;;;;;13.05;8.68;;;24.00;56.90;;;;;;5374613;26;110835;-50
2024/04/15 08:19:12;;;;;;;11.88;10.23;;;24.30;56.50;;;;;;5367749;26;112417;-50
2024/04/15 08:21:37;;;;;;;15.75;10.18;;;24.30;56.00;;;;;;5363813;26;112002;-50
2024/04/15 08:24:03;;;;;;;12.43;9.43;;;24.10;56.30;;;;;;5366235;26;110452;-51
2024/04/15 08:26:29;;;;;;;17.52;10.07;;;24.20;56.90;;;;;;5366443;26;110741;-50
2024/04/15 08:28:55;;;;;;;18.90;9.48;;;24.20;57.00;;;;;;5364827;26;113077;-50
2024/04/15 08:31:20;;;;;;;13.13;10.80;;;24.40;56.70;;;;;;5364168;26;111667;-50
2024/04/15 08:33:47;;;;;;;13.13;10.80;;;24.30;56.50;;;;;;5365458;26;110538;-50
2024/04/15 08:36:15;;;;;;;15.60;10.48;;;23.90;57.10;;;;;;5366091;26;110548;-50
2024/04/15 08:38:44;;;;;;;13.60;11.07;;;24.60;56.40;;;;;;5364663;26;112260;-50
2024/04/15 08:41:19;;;;;;;18.92;12.07;;;24.60;55.90;;;;;;5364595;26;110395;-50
2024/04/15 08:43:47;;;;;;;14.40;10.98;;;23.90;57.60;;;;;;5365534;26;110440;-50
2024/04/15 08:46:27;;;;;;;15.60;9.77;;;24.10;58.30;;;;;;5366141;26;111191;-50
2024/04/15 08:48:53;;;;;;;13.88;10.23;;;24.80;56.50;;;;;;5365757;26;112749;-50
2024/04/15 08:51:19;;;;;;;15.90;10.02;;;25.00;56.30;;;;;;5365255;26;111644;-50
2024/04/15 08:53:46;;;;;;;11.20;10.02;;;25.30;55.40;;;;;;5363963;26;110843;-50
2024/04/15 08:56:13;;;;;;;17.02;12.07;;;25.30;54.80;;;;;;5365753;26;110661;-50
2024/04/15 08:58:40;;;;;;;13.55;10.55;;;24.90;55.40;;;;;;5364694;26;111891;-50
2024/04/15 09:01:07;;;;;;;15.32;9.80;;;25.20;56.00;;;;;;5373828;26;111944;-50
2024/04/15 09:03:33;;;;;;;13.55;10.63;;;25.40;55.40;;;;;;5363379;26;110358;-50
2024/04/15 09:05:59;;;;;;;13.93;11.20;;;25.70;54.40;;;;;;5365750;26;110791;-50
2024/04/15 09:08:25;;;;;;;13.63;11.80;;;25.70;54.20;;;;;;5364528;26;112486;-50
2024/04/15 09:10:50;;;;;;;12.95;11.63;;;25.80;53.10;;;;;;5364621;26;112475;-52
2024/04/15 09:13:16;;;;;;;14.48;10.48;;;25.00;55.60;;;;;;5363648;26;110536;-50
2024/04/15 09:15:43;;;;;;;11.30;9.77;;;25.30;54.60;;;;;;5365784;26;110602;-49
2024/04/15 09:18:09;;;;;;;17.35;12.85;;;25.80;52.80;;;;;;5365413;26;112719;-49
2024/04/15 09:20:36;;;;;;;25.60;15.18;;;25.70;53.60;;;;;;5362784;26;111573;-50
2024/04/15 09:23:04;;;;;;;12.90;11.50;;;25.30;54.30;;;;;;5365333;26;111042;-50
2024/04/15 09:25:31;;;;;;;13.77;11.15;;;25.60;54.00;;;;;;5341465;26;110695;-50
2024/04/15 09:27:57;;;;;;;13.90;11.05;;;25.70;53.10;;;;;;5364366;26;112412;-50
2024/04/15 09:30:23;;;;;;;15.15;12.00;;;25.90;52.90;;;;;;5364002;26;110716;-50
2024/04/15 09:32:48;;;;;;;15.25;10.80;;;25.80;52.40;;;;;;5363937;26;110542;-51
2024/04/15 09:35:14;;;;;;;15.73;12.48;;;25.90;53.80;;;;;;5364701;26;110481;-51
2024/04/15 09:37:40;;;;;;;14.45;11.88;;;25.70;54.50;;;;;;5364603;26;113303;-50
2024/04/15 09:40:13;;;;;;;13.90;11.43;;;25.70;54.10;;;;;;5363848;26;111624;-50
2024/04/15 09:42:40;;;;;;;14.75;9.23;;;25.90;53.00;;;;;;5365014;26;111180;-51
2024/04/15 09:45:08;;;;;;;14.18;10.93;;;26.20;52.00;;;;;;5366414;26;111300;-51
2024/04/15 09:47:34;;;;;;;12.38;9.50;;;26.30;52.60;;;;;;5361705;26;111471;-51
2024/04/15 09:50:00;;;;;;;13.13;11.02;;;27.00;50.40;;;;;;5364596;26;112385;-51
2024/04/15 09:52:30;;;;;;;14.43;10.60;;;27.10;49.50;;;;;;5365539;26;110737;-51
2024/04/15 09:55:08;;;;;;;13.98;10.82;;;27.20;49.40;;;;;;5348708;26;110938;-51
2024/04/15 09:57:40;;;;;;;14.38;11.95;;;27.20;48.80;;;;;;5364062;26;111767;-51
2024/04/15 10:00:13;;;;;;;13.27;12.07;;;26.80;50.90;;;;;;5364357;26;110425;-51
2024/04/15 10:03:07;;;;;;;15.07;11.73;;;26.50;51.40;;;;;;5365196;26;110725;-51
2024/04/15 10:05:39;;;;;;;13.45;9.20;;;26.90;50.40;;;;;;5354870;26;110506;-51
2024/04/15 10:08:05;;;;;;;14.23;10.75;;;27.30;50.80;;;;;;5365088;26;112455;-51
2024/04/15 10:10:32;;;;;;;15.25;11.07;;;27.40;48.40;;;;;;5363983;26;110501;-51
2024/04/15 10:13:03;;;;;;;17.02;12.65;;;27.30;47.60;;;;;;5364649;26;110695;-51
2024/04/15 10:15:30;;;;;;;14.17;11.17;;;27.20;46.90;;;;;;5365109;26;110555;-51
2024/04/15 10:18:17;;;;;;;13.05;11.77;;;27.80;46.00;;;;;;5363540;26;112529;-51
2024/04/15 10:20:48;;;;;;;13.13;11.93;;;28.30;45.00;;;;;;5360250;26;112342;-51
2024/04/15 10:23:19;;;;;;;14.55;12.48;;;28.10;45.30;;;;;;5365077;26;112371;-51
2024/04/15 10:25:45;;;;;;;16.70;10.88;;;28.30;44.40;;;;;;5364871;26;110626;-52
2024/04/15 10:28:14;;;;;;;15.98;13.45;;;29.00;43.90;;;;;;5363738;26;111174;-51
2024/04/15 10:30:43;;;;;;;17.55;12.98;;;31.10;38.80;;;;;;5363819;26;111587;-52
2024/04/15 10:33:12;;;;;;;12.88;10.70;;;31.80;38.50;;;;;;5364655;26;112838;-51
2024/04/15 10:35:40;;;;;;;14.60;12.07;;;31.30;40.20;;;;;;5364514;26;113167;-51
2024/04/15 10:38:07;;;;;;;14.38;11.18;;;31.10;39.80;;;;;;5378253;25;111109;-51
2024/04/15 10:40:38;;;;;;;14.60;13.02;;;30.70;41.20;;;;;;5363322;26;111011;-51
2024/04/15 10:43:05;;;;;;;15.80;12.30;;;29.80;42.00;;;;;;5364386;26;110457;-51
2024/04/15 10:45:32;;;;;;;14.40;12.90;;;30.20;41.60;;;;;;5364156;26;110696;-51
2024/04/15 10:47:58;;;;;;;12.95;10.35;;;29.70;42.80;;;;;;5363050;26;111058;-51
2024/04/15 10:50:24;;;;;;;15.90;10.32;;;29.60;41.10;;;;;;5363414;26;111556;-51
2024/04/15 10:52:50;;;;;;;14.00;9.63;;;29.40;41.70;;;;;;5372419;26;110830;-51
2024/04/15 10:55:21;;;;;;;10.57;8.00;;;29.30;39.10;;;;;;5365445;26;110531;-51
2024/04/15 10:57:47;;;;;;;15.15;7.38;;;28.90;39.10;;;;;;5363920;26;111257;-51
2024/04/15 11:00:19;;;;;;;12.10;8.80;;;30.10;38.10;;;;;;5351989;26;113266;-51
2024/04/15 11:02:50;;;;;;;10.10;9.07;;;29.80;38.40;;;;;;5362167;26;111645;-51
2024/04/15 11:05:16;;;;;;;13.32;7.00;;;30.40;40.10;;;;;;5364584;26;110860;-51
2024/04/15 11:07:43;;;;;;;13.38;7.13;;;31.00;36.30;;;;;;5363201;26;112563;-51
2024/04/15 11:10:10;;;;;;;14.05;7.65;;;31.00;37.00;;;;;;5361011;26;110861;-51
2024/04/15 11:12:36;;;;;;;12.48;8.45;;;30.90;36.40;;;;;;5364693;26;110499;-50
2024/04/15 11:15:03;;;;;;;13.90;8.60;;;29.00;38.30;;;;;;5364903;26;110621;-51
2024/04/15 11:17:30;;;;;;;12.32;8.20;;;29.30;38.90;;;;;;5363853;26;112453;-50
2024/04/15 11:20:06;;;;;;;8.18;7.30;;;29.10;40.10;;;;;;5363296;26;111806;-51
2024/04/15 11:22:33;;;;;;;12.00;10.38;;;28.90;40.70;;;;;;5365309;26;111180;-51
2024/04/15 11:24:59;;;;;;;12.55;7.85;;;29.00;39.50;;;;;;5363534;26;110744;-51
2024/04/15 11:27:31;;;;;;;11.65;8.43;;;29.50;39.70;;;;;;5363813;26;110997;-51
2024/04/15 11:29:59;;;;;;;11.53;9.73;;;29.30;39.30;;;;;;5363155;26;112528;-51
2024/04/15 11:32:27;;;;;;;16.10;9.60;;;28.90;40.30;;;;;;5364874;26;110474;-51
2024/04/15 11:34:54;;;;;;;15.13;9.02;;;28.40;41.30;;;;;;5366307;26;110652;-53
2024/04/15 11:37:20;;;;;;;16.77;9.32;;;29.40;40.50;;;;;;5363804;26;111109;-53
2024/04/15 11:39:47;;;;;;;15.95;9.27;;;29.30;39.70;;;;;;5363488;26;110590;-53
2024/04/15 11:42:14;;;;;;;13.98;8.90;;;29.60;39.50;;;;;;5364355;26;112077;-53
2024/04/15 11:44:40;;;;;;;13.52;10.88;;;29.20;40.60;;;;;;5363035;26;110672;-53
2024/04/15 11:47:11;;;;;;;12.63;9.30;;;28.80;40.00;;;;;;5357324;26;112377;-53
2024/04/15 11:49:38;;;;;;;12.07;9.07;;;28.90;41.10;;;;;;5363804;26;112513;-53
2024/04/15 11:52:04;;;;;;;13.68;9.45;;;29.40;40.00;;;;;;5363497;26;110477;-53
2024/04/15 11:54:31;;;;;;;10.25;9.00;;;29.90;38.80;;;;;;5361905;26;110733;-53
2024/04/15 11:56:57;;;;;;;12.90;8.23;;;29.80;39.40;;;;;;5364355;26;112469;-53
2024/04/15 11:59:23;;;;;;;10.02;8.43;;;29.80;39.60;;;;;;5366605;26;110868;-53
2024/04/15 12:01:49;;;;;;;13.43;8.50;;;29.60;40.00;;;;;;5367180;26;110951;-54
2024/04/15 12:04:15;;;;;;;12.50;9.18;;;30.00;39.20;;;;;;5367744;26;110610;-53
2024/04/15 12:06:43;;;;;;;10.25;7.80;;;29.80;39.00;;;;;;5366416;26;111077;-53
2024/04/15 12:09:10;;;;;;;12.05;8.55;;;30.30;38.80;;;;;;5366659;26;110707;-54
2024/04/15 12:11:35;;;;;;;11.23;9.65;;;30.40;38.40;;;;;;5367690;26;110840;-53
2024/04/15 12:14:01;;;;;;;12.52;8.45;;;30.40;37.30;;;;;;5367825;26;110658;-53
2024/04/15 12:16:26;;;;;;;12.85;9.85;;;30.50;38.10;;;;;;5365998;26;111655;-53